Close Search

Base
°C
Summit
°C

WEATHER AT A GLANCE

Image Slideshow

RMR Village

Revelstoke Mountain Resort -  RMR Village Webcam

Top of The Stoke

Revelstoke Mountain Resort -  Top of The Stoke Webcam

Top of Stellar

Revelstoke Mountain Resort -  Top of Stellar Webcam

Mackenzie Outpost

Revelstoke Mountain Resort -  Mackenzie Outpost Webcam

Ripper

Revelstoke Mountain Resort -  Ripper Webcam
Base
°C
Summit
°C
Wind (Summit)
km/h

Today's Forecast

Subpeak Weather

Time Avg. Air Temp Dew Point Avg. Rel Humidity Avg. 2 Min Wind Speed Max Gust Velocity MGV Time MGV Direction Avg. Spot Wind Velocity
2026-05-05 02:35:001° C-8° C50%31 km/h37 km/h02:33:00NE31 km/h
01:35:001° C-7° C56%23 km/h29 km/h01:33:00NE21 km/h
00:35:001° C-6° C56%30 km/h38 km/h00:31:00NE32 km/h
23:35:001° C-6° C59%25 km/h34 km/h23:31:00NE18 km/h
22:35:002° C-5° C60%23 km/h35 km/h22:35:00N20 km/h
21:35:003° C-5° C58%23 km/h30 km/h21:35:00NE14 km/h
20:35:003° C-4° C57%29 km/h39 km/h20:35:00NE27 km/h
19:35:004° C-4° C55%15 km/h24 km/h19:34:00NE17 km/h
18:35:006° C-3° C53%0 km/h3 km/h18:35:00N1 km/h
17:35:006° C-3° C50%3 km/h10 km/h17:31:00NW3 km/h
16:35:006° C-3° C53%4 km/h7 km/h16:34:00W2 km/h
15:35:006° C-3° C53%6 km/h21 km/h15:32:00NE6 km/h
14:35:006° C-4° C53%12 km/h16 km/h14:33:00NE12 km/h
13:35:006° C-3° C52%1 km/h5 km/h13:31:00NE1 km/h
12:35:006° C-3° C52%6 km/h12 km/h12:33:00NE4 km/h
11:35:004° C-3° C58%12 km/h19 km/h11:31:00NE13 km/h
10:35:003° C-3° C61%31 km/h36 km/h10:33:00NE33 km/h
09:35:003° C-3° C62%29 km/h40 km/h09:31:00NE30 km/h
08:35:003° C-3° C61%32 km/h37 km/h08:31:00NE28 km/h
07:35:003° C-4° C61%36 km/h43 km/h07:34:00NE36 km/h
06:35:003° C-4° C61%29 km/h33 km/h06:35:00NE25 km/h
05:35:003° C-4° C59%23 km/h25 km/h05:31:00NE23 km/h
04:35:004° C-4° C54%23 km/h24 km/h04:35:00NE23 km/h
03:35:004° C-4° C58%6 km/h14 km/h03:32:00E8 km/h

Time Avg. Air Temp Dew Point Avg. Rel Humidity Avg. 2 Min Wind Speed Max Gust Velocity MGV Time MGV Direction Avg. Spot Wind Velocity
2026-05-05 02:35:001° C-8° C50%31 km/h37 km/h02:33:00NE31 km/h
02:30:001° C-8° C51%31 km/h35 km/h02:30:00NE28 km/h
02:25:001° C-8° C50%31 km/h38 km/h02:22:00NE32 km/h
02:20:001° C-8° C51%30 km/h35 km/h02:17:00NE30 km/h
02:15:001° C-8° C50%27 km/h35 km/h02:14:00NE28 km/h
02:10:001° C-8° C51%29 km/h33 km/h02:06:00NE29 km/h
02:05:001° C-8° C52%28 km/h35 km/h02:02:00NE29 km/h
02:00:001° C-8° C52%32 km/h36 km/h02:00:00NE31 km/h
01:55:001° C-8° C51%28 km/h38 km/h01:53:00NE32 km/h
01:50:001° C-8° C54%32 km/h37 km/h01:49:00NE30 km/h
01:45:001° C-7° C54%25 km/h31 km/h01:44:00NE22 km/h
01:40:001° C-7° C55%27 km/h33 km/h01:36:00N24 km/h
01:35:001° C-7° C56%23 km/h29 km/h01:33:00NE21 km/h

We value your privacy
We use cookies to enhance your browsing experience, serve personalized ads or content, and analyze our traffic. By clicking "Allow Cookies", you consent to our use of cookies. For additional details view our Privacy Policy.
Cookie preferences

You can control how your data is used on our website. Learn more below about the cookies we use by reviewing our Privacy Policy.

Your cookie preferences have been saved.